createdAt,value
2023-07-27T00:00:55.197Z,39.12080536912752
2023-07-27T00:06:32.295Z,44.053691275167786
2023-07-27T00:12:38.751Z,47.100671140939596
2023-07-27T00:15:58.233Z,46.38926174496644
2023-07-27T00:19:18.106Z,55.88590604026846
2023-07-27T00:23:17.742Z,51.04026845637584
2023-07-27T00:26:37.720Z,46.12080536912752
2023-07-27T00:29:57.728Z,49.946308724832214
2023-07-27T00:35:23.581Z,50.147651006711406
2023-07-27T00:39:17.818Z,57.47651006711409
2023-07-27T00:44:58.842Z,54.67785234899329
2023-07-27T00:48:18.912Z,67.26174496644295
2023-07-27T00:51:38.173Z,59.49664429530201
2023-07-27T00:54:57.824Z,55.422818791946305
2023-07-27T00:58:17.641Z,61.61744966442953
2023-07-27T01:01:37.540Z,54.18120805369127
2023-07-27T01:04:56.913Z,57.852348993288594
2023-07-27T01:08:16.485Z,62.053691275167786
2023-07-27T01:14:10.866Z,56.25503355704698
2023-07-27T01:17:30.992Z,67.8993288590604
2023-07-27T01:20:50.734Z,55.214765100671144
2023-07-27T01:26:37.621Z,59.395973154362416
2023-07-27T01:29:57.580Z,56.59060402684564
2023-07-27T01:33:33.874Z,67.22147651006712
2023-07-27T01:36:53.858Z,54.04697986577181
2023-07-27T01:41:04.945Z,65.52348993288591
2023-07-27T01:44:24.158Z,65.83221476510067
2023-07-27T01:47:44.040Z,63.61073825503356
2023-07-27T01:51:03.530Z,76.87919463087249
2023-07-27T01:54:22.970Z,57.04697986577181
2023-07-27T01:57:43.382Z,62.308724832214764
2023-07-27T02:01:02.795Z,62.80536912751678
2023-07-27T02:04:22.880Z,63.53691275167785
2023-07-27T02:07:42.214Z,59.81208053691275
2023-07-27T02:11:01.710Z,65.0738255033557
2023-07-27T02:14:21.715Z,61.53691275167785
2023-07-27T02:17:41.568Z,56.58389261744966
2023-07-27T02:21:00.767Z,62.08724832214765
2023-07-27T02:24:20.255Z,72.03355704697987
2023-07-27T02:28:02.142Z,61.939597315436245
2023-07-27T02:31:26.327Z,56.852348993288594
2023-07-27T02:34:46.326Z,58.63758389261745
2023-07-27T02:38:05.516Z,57.946308724832214
2023-07-27T02:41:25.851Z,66.44295302013423
2023-07-27T02:45:01.634Z,66.50335570469798
2023-07-27T02:48:22.006Z,76.0
2023-07-27T02:51:58.574Z,72.09395973154362
2023-07-27T02:55:18.044Z,66.14765100671141
2023-07-27T02:58:37.812Z,75.51006711409396
2023-07-27T03:01:57.670Z,87.77181208053692
2023-07-27T03:05:16.666Z,80.81879194630872
2023-07-27T03:09:22.235Z,89.16107382550335
2023-07-27T03:12:42.342Z,93.59060402684564
2023-07-27T03:16:02.207Z,100.56375838926175
2023-07-27T03:19:22.953Z,98.15436241610739
2023-07-27T03:23:20.390Z,106.53691275167785
2023-07-27T03:26:40.180Z,108.6241610738255
2023-07-27T03:29:59.252Z,97.96644295302013
2023-07-27T03:33:19.201Z,102.38926174496645
2023-07-27T03:36:39.235Z,107.16778523489933
2023-07-27T03:41:35.938Z,109.57718120805369
2023-07-27T03:44:55.120Z,109.15436241610739
2023-07-27T03:48:14.192Z,103.64429530201342
2023-07-27T03:51:33.718Z,112.76510067114094
2023-07-27T03:55:55.982Z,90.69798657718121
2023-07-27T04:00:03.010Z,94.18120805369128
2023-07-27T04:03:22.949Z,103.34228187919463
2023-07-27T04:06:43.108Z,103.42281879194631
2023-07-27T04:10:02.727Z,91.36241610738254
2023-07-27T04:16:11.239Z,97.29530201342281
2023-07-27T04:19:31.071Z,98.69127516778524
2023-07-27T04:24:17.584Z,104.53691275167785
2023-07-27T04:29:58.267Z,104.61744966442953
2023-07-27T04:33:17.650Z,112.24832214765101
2023-07-27T04:38:54.245Z,115.4496644295302
2023-07-27T04:42:13.910Z,116.85234899328859
2023-07-27T04:53:28.239Z,112.77181208053692
2023-07-27T04:57:34.323Z,104.36241610738254
2023-07-27T05:00:54.521Z,116.63758389261746
2023-07-27T05:04:13.986Z,113.58389261744966
2023-07-27T05:07:33.918Z,113.4496644295302
2023-07-27T05:10:53.767Z,106.08724832214764
2023-07-27T05:14:13.073Z,98.15436241610739
2023-07-27T05:17:32.680Z,103.28187919463087
2023-07-27T05:20:52.521Z,104.8993288590604
2023-07-27T05:24:12.539Z,102.93959731543625
2023-07-27T05:27:32.530Z,97.81208053691275
2023-07-27T05:33:20.974Z,96.93288590604027
2023-07-27T05:36:40.451Z,98.04026845637584
2023-07-27T05:40:00.469Z,94.36912751677852
2023-07-27T05:44:07.751Z,91.01342281879195
2023-07-27T05:49:37.975Z,100.69127516778524
2023-07-27T05:52:57.745Z,92.95973154362416
2023-07-27T05:56:16.950Z,86.34228187919463
2023-07-27T05:59:36.890Z,98.12080536912751
2023-07-27T06:02:56.594Z,78.22147651006712
2023-07-27T06:06:16.266Z,94.61073825503355
2023-07-27T06:09:35.414Z,93.55704697986577
2023-07-27T06:12:55.538Z,94.96644295302013
2023-07-27T06:16:14.913Z,89.71812080536913
2023-07-27T06:19:35.084Z,91.66442953020135
2023-07-27T06:22:55.168Z,88.55704697986577
2023-07-27T06:26:14.972Z,91.87248322147651
2023-07-27T06:29:33.986Z,94.1744966442953
2023-07-27T06:32:53.942Z,102.0738255033557
2023-07-27T06:36:13.024Z,86.71140939597315
2023-07-27T06:39:32.871Z,82.26174496644295
2023-07-27T06:42:53.359Z,84.31543624161074
2023-07-27T06:46:13.047Z,96.04697986577182
2023-07-27T06:49:32.208Z,87.83221476510067
2023-07-27T06:52:51.604Z,89.41610738255034
2023-07-27T06:56:11.261Z,91.14765100671141
2023-07-27T06:59:30.749Z,95.65771812080537
2023-07-27T07:02:51.351Z,93.58389261744966
2023-07-27T07:06:11.015Z,87.55704697986577
2023-07-27T07:09:30.288Z,95.24161073825503
2023-07-27T07:12:50.381Z,90.75838926174497
2023-07-27T07:16:09.748Z,92.63758389261746
2023-07-27T07:19:28.595Z,91.51677852348993
2023-07-27T07:22:48.388Z,86.57718120805369
2023-07-27T07:26:07.971Z,84.99328859060402
2023-07-27T07:29:27.144Z,91.6241610738255
2023-07-27T07:32:46.770Z,92.52348993288591
2023-07-27T07:36:51.235Z,86.57718120805369
2023-07-27T07:40:11.342Z,93.70469798657719
2023-07-27T07:43:31.017Z,90.93288590604027
2023-07-27T07:46:50.316Z,90.87248322147651
2023-07-27T07:50:10.192Z,103.18120805369128
2023-07-27T07:53:35.532Z,82.00671140939598
2023-07-27T07:56:55.556Z,79.71812080536913
2023-07-27T08:00:14.944Z,80.22818791946308
2023-07-27T08:03:33.807Z,94.57718120805369
2023-07-27T08:06:53.986Z,84.36912751677852
2023-07-27T08:10:12.947Z,88.68456375838926
2023-07-27T08:13:32.327Z,86.54362416107382
2023-07-27T08:16:52.642Z,92.20805369127517
2023-07-27T08:20:12.795Z,91.47651006711409
2023-07-27T08:23:31.900Z,80.93959731543625
2023-07-27T08:26:51.339Z,85.41610738255034
2023-07-27T08:30:10.823Z,87.16778523489933
2023-07-27T08:33:31.126Z,84.69798657718121
2023-07-27T08:36:50.282Z,76.67114093959732
2023-07-27T08:40:10.560Z,75.04026845637584
2023-07-27T08:43:29.956Z,74.97315436241611
2023-07-27T08:46:50.054Z,82.39597315436242
2023-07-27T08:50:09.307Z,77.51006711409396
2023-07-27T08:53:28.577Z,75.36912751677852
2023-07-27T08:58:57.997Z,72.3489932885906
2023-07-27T09:03:51.478Z,70.02013422818791
2023-07-27T09:07:11.048Z,85.14765100671141
2023-07-27T09:10:31.332Z,73.28859060402685
2023-07-27T09:16:59.899Z,75.29530201342281
2023-07-27T09:20:19.384Z,59.83221476510067
2023-07-27T09:23:38.276Z,66.1744966442953
2023-07-27T09:26:57.856Z,63.577181208053695
2023-07-27T09:30:16.830Z,52.32214765100671
2023-07-27T09:33:37.363Z,59.89261744966443
2023-07-27T09:36:56.796Z,60.261744966442954
2023-07-27T09:40:15.657Z,77.83221476510067
2023-07-27T09:43:35.428Z,76.98657718120805
2023-07-27T09:46:55.865Z,64.3489932885906
2023-07-27T09:50:15.312Z,74.56375838926175
2023-07-27T09:53:35.613Z,64.14093959731544
2023-07-27T09:56:55.168Z,66.48993288590604
2023-07-27T10:00:14.151Z,56.75167785234899
2023-07-27T10:03:34.176Z,63.328859060402685
2023-07-27T10:08:00.673Z,54.939597315436245
2023-07-27T10:11:19.532Z,51.080536912751676
2023-07-27T10:14:55.090Z,50.93288590604027
2023-07-27T10:18:14.157Z,50.91275167785235
2023-07-27T10:21:33.164Z,41.557046979865774
2023-07-27T10:24:53.024Z,45.12080536912752
2023-07-27T10:28:12.562Z,44.630872483221474
2023-07-27T10:31:32.822Z,47.04026845637584
2023-07-27T10:41:16.754Z,36.61073825503356
2023-07-27T10:46:39.191Z,36.58389261744966
2023-07-27T10:50:02.397Z,40.24832214765101
2023-07-27T10:55:47.248Z,34.47651006711409
2023-07-27T10:59:07.255Z,26.563758389261746
2023-07-27T11:02:26.608Z,36.75167785234899
2023-07-27T11:05:46.170Z,26.550335570469798
2023-07-27T11:10:12.052Z,28.268456375838927
2023-07-27T11:13:31.295Z,28.590604026845636
2023-07-27T11:16:50.584Z,30.624161073825505
2023-07-27T11:20:10.159Z,34.50335570469799
2023-07-27T11:23:30.222Z,33.006711409395976
2023-07-27T11:26:50.006Z,31.261744966442954
2023-07-27T11:30:22.383Z,28.691275167785236
2023-07-27T11:33:42.273Z,30.691275167785236
2023-07-27T11:37:02.154Z,18.899328859060404
2023-07-27T11:40:35.806Z,25.19463087248322
2023-07-27T11:43:55.532Z,23.838926174496645
2023-07-27T11:48:35.723Z,18.644295302013422
2023-07-27T11:51:55.276Z,16.42281879194631
2023-07-27T11:55:14.026Z,20.85234899328859
2023-07-27T11:58:32.790Z,15.114093959731544
2023-07-27T12:01:52.806Z,17.899328859060404
2023-07-27T12:05:12.153Z,15.060402684563758
2023-07-27T12:19:22.140Z,19.959731543624162
2023-07-27T12:22:42.268Z,18.483221476510067
2023-07-27T12:32:47.465Z,22.624161073825505
2023-07-27T12:36:06.406Z,20.19463087248322
2023-07-27T12:39:25.975Z,23.899328859060404
2023-07-27T12:42:45.674Z,24.322147651006713
2023-07-27T12:46:29.741Z,25.859060402684563
2023-07-27T12:49:48.978Z,19.892617449664428
2023-07-27T12:53:07.845Z,27.335570469798657
2023-07-27T12:56:27.430Z,20.563758389261746
2023-07-27T13:01:39.079Z,27.19463087248322
2023-07-27T13:04:59.138Z,21.70469798657718
2023-07-27T13:09:24.740Z,19.63758389261745
2023-07-27T13:12:44.524Z,21.19463087248322
2023-07-27T13:16:04.144Z,16.563758389261746
2023-07-27T13:19:23.584Z,18.664429530201343
2023-07-27T13:22:43.869Z,19.42281879194631
2023-07-27T13:26:03.429Z,16.879194630872483
2023-07-27T13:29:22.817Z,15.724832214765101
2023-07-27T13:33:06.189Z,21.758389261744966
2023-07-27T13:37:41.095Z,21.06711409395973
2023-07-27T13:41:00.870Z,15.093959731543624
2023-07-27T13:44:20.647Z,11.013422818791947
2023-07-27T13:47:47.238Z,15.342281879194632
2023-07-27T13:51:13.016Z,16.181208053691275
2023-07-27T13:56:51.790Z,12.04026845637584
2023-07-27T14:00:14.322Z,15.543624161073826
2023-07-27T14:03:34.811Z,13.53020134228188
2023-07-27T14:06:54.171Z,14.523489932885907
2023-07-27T14:10:13.232Z,6.530201342281879
2023-07-27T14:13:32.813Z,8.684563758389261
2023-07-27T14:16:52.805Z,12.48993288590604
2023-07-27T14:20:11.870Z,10.080536912751677
2023-07-27T14:23:31.768Z,8.228187919463087
2023-07-27T14:26:52.049Z,5.563758389261745
2023-07-27T14:30:11.650Z,5.7114093959731544
2023-07-27T14:33:31.502Z,7.926174496644295
2023-07-27T14:36:50.466Z,4.456375838926174
2023-07-27T14:40:10.231Z,4.100671140939597
2023-07-27T14:43:58.288Z,6.120805369127517
2023-07-27T14:47:17.250Z,4.557046979865772
2023-07-27T14:50:39.873Z,3.751677852348993
2023-07-27T14:57:19.797Z,6.201342281879195
2023-07-27T15:00:39.968Z,9.59731543624161
2023-07-27T15:03:59.958Z,7.489932885906041
2023-07-27T15:09:29.063Z,10.51006711409396
2023-07-27T15:12:48.853Z,7.409395973154362
2023-07-27T15:16:07.821Z,10.798657718120806
2023-07-27T15:19:28.107Z,14.919463087248323
2023-07-27T15:22:47.491Z,10.879194630872483
2023-07-27T15:26:07.577Z,10.523489932885907
2023-07-27T15:29:26.736Z,8.288590604026846
2023-07-27T15:32:46.672Z,7.154362416107382
2023-07-27T15:37:45.422Z,4.3624161073825505
2023-07-27T15:41:05.096Z,7.046979865771812
2023-07-27T15:46:22.548Z,5.651006711409396
2023-07-27T15:49:41.501Z,7.503355704697986
2023-07-27T15:53:00.923Z,5.89261744966443
2023-07-27T15:56:20.046Z,4.845637583892618
2023-07-27T15:59:39.826Z,4.604026845637584
2023-07-27T16:02:58.592Z,3.2416107382550337
2023-07-27T16:06:18.570Z,5.5369127516778525
2023-07-27T16:09:38.867Z,5.74496644295302
2023-07-27T16:14:05.105Z,7.89261744966443
2023-07-27T16:17:24.995Z,7.483221476510067
2023-07-27T16:20:44.495Z,7.248322147651007
2023-07-27T16:25:52.059Z,8.40268456375839
2023-07-27T16:29:11.769Z,7.429530201342282
2023-07-27T16:32:31.143Z,6.026845637583893
2023-07-27T16:35:51.008Z,11.25503355704698
2023-07-27T16:39:10.384Z,10.778523489932885
2023-07-27T16:42:30.261Z,9.46979865771812
2023-07-27T16:45:49.524Z,6.046979865771812
2023-07-27T16:49:09.716Z,7.912751677852349
2023-07-27T16:52:29.404Z,7.100671140939597
2023-07-27T16:55:49.278Z,5.510067114093959
2023-07-27T16:59:08.339Z,7.100671140939597
2023-07-27T17:02:29.216Z,6.691275167785235
2023-07-27T17:07:01.337Z,5.23489932885906
2023-07-27T17:10:35.809Z,4.348993288590604
2023-07-27T17:13:56.061Z,10.060402684563758
2023-07-27T17:17:15.546Z,4.033557046979865
2023-07-27T17:20:34.833Z,4.691275167785235
2023-07-27T17:23:54.687Z,3.859060402684564
2023-07-27T17:28:30.186Z,5.087248322147651
2023-07-27T17:31:49.946Z,5.74496644295302
2023-07-27T17:35:09.393Z,7.832214765100671
2023-07-27T17:38:29.083Z,4.758389261744966
2023-07-27T17:41:49.054Z,5.76510067114094
2023-07-27T17:45:08.543Z,5.436241610738255
2023-07-27T17:48:27.907Z,3.5436241610738257
2023-07-27T17:51:48.084Z,4.993288590604027
2023-07-27T18:03:53.385Z,3.7651006711409396
2023-07-27T18:07:13.287Z,4.651006711409396
2023-07-27T18:10:32.960Z,3.120805369127517
2023-07-27T18:13:51.716Z,3.402684563758389
2023-07-27T18:17:10.387Z,3.5503355704697985
2023-07-27T18:20:29.551Z,1.9328859060402686
2023-07-27T18:23:49.026Z,4.76510067114094
2023-07-27T18:28:06.559Z,2.1677852348993287
2023-07-27T18:31:26.806Z,2.0939597315436242
2023-07-27T18:34:46.432Z,3.261744966442953
2023-07-27T18:41:15.868Z,1.8590604026845639
2023-07-27T18:44:38.024Z,2.9395973154362416
2023-07-27T18:47:57.496Z,1.6442953020134228
2023-07-27T18:51:35.026Z,2.0805369127516777
2023-07-27T18:54:55.144Z,2.6778523489932886
2023-07-27T18:58:14.372Z,2.302013422818792
2023-07-27T19:01:34.385Z,3.6040268456375837
2023-07-27T19:04:54.563Z,2.9395973154362416
2023-07-27T19:08:15.017Z,4.785234899328859
2023-07-27T19:11:34.729Z,5.295302013422819
2023-07-27T19:14:55.825Z,3.3422818791946307
2023-07-27T19:18:19.249Z,3.912751677852349
2023-07-27T19:21:41.073Z,2.8187919463087248
2023-07-27T19:25:01.579Z,4.402684563758389
2023-07-27T19:28:20.993Z,3.295302013422819
2023-07-27T19:31:40.895Z,3.771812080536913
2023-07-27T19:35:00.468Z,2.8859060402684564
2023-07-27T19:38:20.325Z,3.9194630872483223
2023-07-27T19:41:40.078Z,2.7583892617449663
2023-07-27T19:45:00.215Z,4.630872483221476
2023-07-27T19:48:20.046Z,4.644295302013423
2023-07-27T19:51:40.416Z,4.389261744966443
2023-07-27T19:55:00.640Z,5.322147651006712
2023-07-27T19:58:20.894Z,4.402684563758389
2023-07-27T20:01:41.115Z,3.3758389261744965
2023-07-27T20:05:01.593Z,3.3221476510067114
2023-07-27T20:08:32.112Z,3.4496644295302015
2023-07-27T20:12:01.245Z,4.181208053691275
2023-07-27T20:15:21.337Z,6.442953020134228
2023-07-27T20:18:41.343Z,8.765100671140939
2023-07-27T20:22:01.543Z,5.671140939597316
2023-07-27T20:25:21.303Z,5.825503355704698
2023-07-27T20:28:41.732Z,6.932885906040268
2023-07-27T20:32:01.199Z,5.657718120805369
2023-07-27T20:35:20.558Z,9.302013422818792
2023-07-27T20:38:40.782Z,6.409395973154362
2023-07-27T20:42:00.517Z,9.154362416107382
2023-07-27T20:45:20.831Z,6.577181208053691
2023-07-27T20:48:40.449Z,8.06711409395973
2023-07-27T20:52:20.655Z,6.040268456375839
2023-07-27T20:55:40.104Z,9.342281879194632
2023-07-27T20:58:59.806Z,9.281879194630873
2023-07-27T21:02:19.380Z,9.483221476510067
2023-07-27T21:05:38.513Z,14.087248322147651
2023-07-27T21:08:58.543Z,9.449664429530202
2023-07-27T21:12:18.450Z,12.020134228187919
2023-07-27T21:15:38.815Z,18.664429530201343
2023-07-27T21:18:58.811Z,26.604026845637584
2023-07-27T21:26:44.933Z,33.986577181208055
2023-07-27T21:30:04.129Z,33.97986577181208
2023-07-27T21:33:28.562Z,38.87919463087248
2023-07-27T21:36:50.757Z,37.87919463087248
2023-07-27T21:40:13.993Z,42.95973154362416
2023-07-27T21:43:36.268Z,38.04026845637584
2023-07-27T21:46:57.041Z,35.033557046979865
2023-07-27T21:50:16.054Z,42.711409395973156
2023-07-27T21:53:37.915Z,37.13422818791946
2023-07-27T21:56:57.711Z,36.91275167785235
2023-07-27T22:00:17.565Z,34.30201342281879
2023-07-27T22:03:37.741Z,38.0
2023-07-27T22:06:57.967Z,41.691275167785236
2023-07-27T22:10:18.174Z,38.49664429530201
2023-07-27T22:13:37.901Z,34.604026845637584
2023-07-27T22:16:58.044Z,41.651006711409394
2023-07-27T22:20:17.413Z,34.919463087248324
2023-07-27T22:23:37.406Z,29.859060402684563
2023-07-27T22:26:56.362Z,25.073825503355703
2023-07-27T22:30:15.773Z,19.221476510067113
2023-07-27T22:35:17.909Z,18.731543624161073
2023-07-27T22:41:09.701Z,15.25503355704698
2023-07-27T22:44:29.341Z,13.208053691275168
2023-07-27T22:47:49.540Z,12.604026845637584
2023-07-27T22:51:31.137Z,14.503355704697986
2023-07-27T22:54:50.999Z,8.87248322147651
2023-07-27T22:58:10.279Z,8.966442953020135
2023-07-27T23:01:30.197Z,8.536912751677852
2023-07-27T23:04:49.868Z,12.939597315436242
2023-07-27T23:08:09.087Z,9.228187919463087
2023-07-27T23:11:28.242Z,9.543624161073826
2023-07-27T23:14:48.461Z,10.328859060402685
2023-07-27T23:18:08.341Z,8.563758389261745
2023-07-27T23:21:27.922Z,7.221476510067114
2023-07-27T23:24:47.097Z,11.281879194630873
2023-07-27T23:28:07.138Z,10.187919463087248
2023-07-27T23:31:26.948Z,10.691275167785236
2023-07-27T23:36:49.877Z,9.704697986577182
2023-07-27T23:40:43.512Z,5.825503355704698
2023-07-27T23:44:12.042Z,9.261744966442953
2023-07-27T23:47:31.902Z,6.563758389261745
2023-07-27T23:51:02.774Z,12.389261744966444
2023-07-27T23:54:23.228Z,7.476510067114094
2023-07-27T23:57:42.748Z,7.208053691275167
